createdAt,value
2022-11-21T00:00:23.189Z,0.00
2022-11-21T00:01:23.160Z,0.00
2022-11-21T00:02:23.163Z,0.00
2022-11-21T00:03:23.118Z,0.00
2022-11-21T00:04:23.080Z,0.00
2022-11-21T00:05:23.056Z,0.00
2022-11-21T00:06:23.040Z,0.00
2022-11-21T00:07:23.070Z,0.00
2022-11-21T00:08:23.043Z,0.00
2022-11-21T00:09:23.215Z,0.00
2022-11-21T00:10:22.936Z,0.00
2022-11-21T00:11:22.907Z,0.00
2022-11-21T00:12:22.881Z,0.00
2022-11-21T00:13:23.071Z,0.00
2022-11-21T00:14:22.876Z,0.00
2022-11-21T00:15:22.861Z,0.00
2022-11-21T00:16:22.797Z,0.00
2022-11-21T00:17:22.891Z,0.00
2022-11-21T00:18:22.731Z,0.00
2022-11-21T00:19:22.957Z,0.00
2022-11-21T00:20:22.676Z,0.00
2022-11-21T00:21:22.766Z,0.00
2022-11-21T00:22:22.753Z,0.00
2022-11-21T00:23:22.654Z,0.00
2022-11-21T00:24:22.670Z,0.00
2022-11-21T00:25:22.657Z,0.00
2022-11-21T00:26:22.527Z,0.00
2022-11-21T00:27:22.511Z,0.00
2022-11-21T00:28:22.470Z,0.00
2022-11-21T00:29:22.453Z,0.00
2022-11-21T00:30:22.430Z,0.00
2022-11-21T00:31:22.407Z,0.00
2022-11-21T00:32:22.372Z,0.00
2022-11-21T00:33:22.346Z,0.00
2022-11-21T00:34:22.321Z,0.00
2022-11-21T00:35:22.305Z,0.00
2022-11-21T00:36:22.275Z,0.00
2022-11-21T00:37:22.247Z,0.00
2022-11-21T00:38:22.231Z,0.00
2022-11-21T00:39:22.197Z,0.00
2022-11-21T00:40:22.184Z,0.00
2022-11-21T00:41:22.150Z,0.00
2022-11-21T00:42:22.123Z,0.00
2022-11-21T00:43:22.100Z,0.00
2022-11-21T00:44:22.066Z,0.00
2022-11-21T00:45:24.435Z,0.00
2022-11-21T00:46:22.021Z,0.00
2022-11-21T00:47:22.014Z,0.00
2022-11-21T00:48:21.967Z,0.00
2022-11-21T00:49:21.947Z,0.00
2022-11-21T00:50:21.922Z,0.00
2022-11-21T00:51:21.901Z,0.00
2022-11-21T00:52:21.868Z,0.00
2022-11-21T00:53:21.851Z,0.00
2022-11-21T00:54:21.816Z,0.00
2022-11-21T00:55:21.794Z,0.00
2022-11-21T00:56:21.768Z,0.00
2022-11-21T00:57:21.747Z,0.00
2022-11-21T00:58:21.720Z,0.00
2022-11-21T00:59:21.690Z,0.00
2022-11-21T01:00:21.665Z,0.00
2022-11-21T01:01:21.695Z,0.00
2022-11-21T01:02:21.615Z,0.00
2022-11-21T01:03:21.589Z,0.00
2022-11-21T01:04:21.567Z,0.00
2022-11-21T01:05:21.543Z,0.00
2022-11-21T01:06:21.509Z,0.00
2022-11-21T01:07:21.526Z,0.00
2022-11-21T01:08:21.462Z,0.00
2022-11-21T01:09:21.435Z,0.00
2022-11-21T01:10:21.412Z,0.00
2022-11-21T01:11:21.388Z,0.00
2022-11-21T01:12:21.356Z,0.00
2022-11-21T01:13:21.345Z,0.00
2022-11-21T01:14:21.409Z,0.00
2022-11-21T01:15:21.295Z,0.00
2022-11-21T01:16:21.260Z,0.00
2022-11-21T01:17:21.255Z,0.00
2022-11-21T01:18:21.230Z,0.00
2022-11-21T01:19:21.190Z,0.00
2022-11-21T01:20:21.178Z,0.00
2022-11-21T01:21:21.137Z,0.00
2022-11-21T01:22:21.122Z,0.00
2022-11-21T01:23:21.089Z,0.00
2022-11-21T01:24:21.055Z,0.00
2022-11-21T01:25:21.035Z,0.00
2022-11-21T01:26:21.005Z,0.00
2022-11-21T01:27:20.990Z,0.00
2022-11-21T01:28:20.956Z,0.00
2022-11-21T01:29:20.939Z,0.00
2022-11-21T01:30:20.907Z,0.00
2022-11-21T01:31:20.883Z,0.00
2022-11-21T01:32:20.860Z,0.00
2022-11-21T01:33:20.830Z,0.00
2022-11-21T01:34:20.801Z,0.00
2022-11-21T01:35:20.779Z,0.00
2022-11-21T01:36:20.754Z,0.00
2022-11-21T01:37:20.755Z,0.00
2022-11-21T01:38:20.793Z,0.00
2022-11-21T01:39:20.705Z,0.00
2022-11-21T01:40:20.671Z,0.00
2022-11-21T01:41:20.639Z,0.00
2022-11-21T01:42:20.601Z,0.00
2022-11-21T01:43:20.586Z,0.00
2022-11-21T01:44:20.571Z,0.00
2022-11-21T01:45:20.587Z,0.00
2022-11-21T01:46:20.506Z,0.00
2022-11-21T01:47:20.490Z,0.00
2022-11-21T01:48:20.453Z,0.00
2022-11-21T01:49:20.443Z,0.00
2022-11-21T01:50:20.454Z,0.00
2022-11-21T01:51:20.456Z,0.00
2022-11-21T01:52:20.371Z,0.00
2022-11-21T01:53:20.339Z,0.00
2022-11-21T01:54:20.309Z,0.00
2022-11-21T01:55:20.329Z,0.00
2022-11-21T01:56:20.254Z,0.00
2022-11-21T01:57:20.300Z,0.00
2022-11-21T01:58:20.275Z,0.00
2022-11-21T01:59:20.180Z,0.00
2022-11-21T02:00:20.196Z,0.00
2022-11-21T02:01:20.182Z,0.00
2022-11-21T02:02:20.180Z,0.00
2022-11-21T02:03:20.087Z,0.00
2022-11-21T02:04:20.217Z,0.00
2022-11-21T02:05:20.032Z,0.00
2022-11-21T02:06:20.002Z,0.00
2022-11-21T02:07:20.012Z,0.00
2022-11-21T02:08:19.959Z,0.00
2022-11-21T02:09:19.926Z,0.00
2022-11-21T02:10:19.899Z,0.00
2022-11-21T02:11:19.877Z,0.00
2022-11-21T02:12:19.849Z,0.00
2022-11-21T02:13:19.820Z,0.00
2022-11-21T02:14:19.797Z,0.00
2022-11-21T02:15:19.767Z,0.00
2022-11-21T02:16:19.744Z,0.00
2022-11-21T02:17:19.731Z,0.00
2022-11-21T02:18:19.736Z,0.00
2022-11-21T02:19:19.681Z,0.00
2022-11-21T02:20:19.646Z,0.00
2022-11-21T02:21:19.622Z,0.00
2022-11-21T02:22:19.598Z,0.00
2022-11-21T02:23:19.571Z,0.00
2022-11-21T02:24:19.548Z,0.00
2022-11-21T02:25:19.513Z,0.00
2022-11-21T02:26:19.497Z,0.00
2022-11-21T02:27:19.489Z,0.00
2022-11-21T02:28:19.448Z,0.00
2022-11-21T02:29:19.422Z,0.00
2022-11-21T02:30:19.396Z,0.00
2022-11-21T02:31:19.369Z,0.00
2022-11-21T02:32:19.346Z,0.00
2022-11-21T02:33:19.308Z,0.00
2022-11-21T02:34:19.293Z,0.00
2022-11-21T02:35:19.284Z,0.00
2022-11-21T02:36:19.267Z,0.00
2022-11-21T02:37:19.210Z,0.00
2022-11-21T02:38:19.210Z,0.00
2022-11-21T02:39:19.162Z,0.00
2022-11-21T02:40:19.179Z,0.00
2022-11-21T02:41:19.160Z,0.00
2022-11-21T02:42:19.211Z,0.00
2022-11-21T02:43:19.302Z,0.00
2022-11-21T02:44:19.089Z,0.00
2022-11-21T02:45:19.073Z,0.00
2022-11-21T02:46:19.040Z,0.00
2022-11-21T02:47:19.163Z,0.00
2022-11-21T02:48:19.184Z,0.00
2022-11-21T02:49:18.915Z,0.00
2022-11-21T02:50:18.889Z,0.00
2022-11-21T02:51:18.861Z,0.00
2022-11-21T02:52:18.844Z,0.00
2022-11-21T02:53:18.811Z,0.00
2022-11-21T02:54:18.791Z,0.00
2022-11-21T02:55:18.766Z,0.00
2022-11-21T02:56:18.733Z,0.00
2022-11-21T02:57:18.709Z,0.00
2022-11-21T02:58:18.684Z,0.00
2022-11-21T02:59:18.655Z,0.00
2022-11-21T03:00:18.635Z,0.00
2022-11-21T03:01:18.639Z,0.00
2022-11-21T03:02:18.584Z,0.00
2022-11-21T03:03:18.553Z,0.00
2022-11-21T03:04:18.530Z,0.00
2022-11-21T03:05:18.545Z,0.00
2022-11-21T03:06:18.529Z,0.00
2022-11-21T03:07:18.530Z,0.00
2022-11-21T03:08:18.441Z,0.00
2022-11-21T03:09:18.611Z,0.00
2022-11-21T03:10:18.385Z,0.00
2022-11-21T03:11:18.352Z,0.00
2022-11-21T03:12:18.384Z,0.00
2022-11-21T03:13:18.304Z,0.00
2022-11-21T03:14:18.280Z,0.00
2022-11-21T03:15:18.253Z,0.00
2022-11-21T03:16:18.231Z,0.00
2022-11-21T03:17:18.204Z,0.00
2022-11-21T03:18:18.182Z,0.00
2022-11-21T03:19:18.151Z,0.00
2022-11-21T03:20:18.133Z,0.00
2022-11-21T03:21:18.103Z,0.00
2022-11-21T03:22:18.085Z,0.00
2022-11-21T03:23:18.045Z,0.00
2022-11-21T03:24:18.026Z,0.00
2022-11-21T03:25:18.007Z,0.00
2022-11-21T03:26:17.976Z,0.00
2022-11-21T03:27:17.950Z,0.00
2022-11-21T03:28:17.932Z,0.00
2022-11-21T03:29:17.923Z,0.00
2022-11-21T03:30:17.870Z,0.00
2022-11-21T03:31:17.900Z,0.00
2022-11-21T03:32:17.937Z,0.00
2022-11-21T03:33:17.833Z,0.00
2022-11-21T03:34:17.775Z,0.00
2022-11-21T03:35:17.745Z,0.00
2022-11-21T03:36:17.725Z,0.00
2022-11-21T03:37:17.728Z,0.00
2022-11-21T03:38:17.672Z,0.00
2022-11-21T03:39:17.653Z,0.00
2022-11-21T03:40:17.815Z,0.00
2022-11-21T03:41:17.591Z,0.00
2022-11-21T03:42:17.571Z,0.00
2022-11-21T03:43:17.539Z,0.00
2022-11-21T03:44:17.520Z,0.00
2022-11-21T03:45:17.487Z,0.00
2022-11-21T03:46:17.470Z,0.00
2022-11-21T03:47:17.453Z,0.00
2022-11-21T03:48:17.417Z,0.00
2022-11-21T03:49:17.385Z,0.00
2022-11-21T03:50:17.362Z,0.00
2022-11-21T03:51:17.343Z,0.00
2022-11-21T03:52:17.311Z,0.00
2022-11-21T03:53:17.290Z,0.00
2022-11-21T03:54:17.298Z,0.00
2022-11-21T03:55:17.265Z,0.00
2022-11-21T03:56:17.217Z,0.00
2022-11-21T03:57:17.206Z,0.00
2022-11-21T03:58:17.162Z,0.00
2022-11-21T03:59:17.150Z,0.00
2022-11-21T04:00:17.109Z,0.00
2022-11-21T04:01:17.123Z,0.00
2022-11-21T04:02:17.058Z,0.00
2022-11-21T04:03:17.036Z,0.00
2022-11-21T04:04:17.009Z,0.00
2022-11-21T04:05:16.989Z,0.00
2022-11-21T04:06:16.957Z,0.00
2022-11-21T04:07:16.994Z,0.00
2022-11-21T04:08:16.909Z,0.00
2022-11-21T04:09:16.889Z,0.00
2022-11-21T04:10:16.856Z,0.00
2022-11-21T04:11:16.829Z,0.00
2022-11-21T04:12:16.806Z,0.00
2022-11-21T04:13:16.775Z,0.00
2022-11-21T04:14:16.756Z,0.00
2022-11-21T04:15:16.744Z,0.00
2022-11-21T04:16:16.853Z,0.00
2022-11-21T04:17:16.709Z,0.00
2022-11-21T04:18:16.654Z,0.00
2022-11-21T04:19:16.649Z,0.00
2022-11-21T04:20:16.604Z,0.00
2022-11-21T04:21:16.575Z,0.00
2022-11-21T04:22:16.550Z,0.00
2022-11-21T04:23:16.529Z,0.00
2022-11-21T04:24:16.501Z,0.00
2022-11-21T04:25:16.492Z,0.00
2022-11-21T04:26:16.479Z,0.00
2022-11-21T04:27:16.427Z,0.00
2022-11-21T04:28:16.400Z,0.00
2022-11-21T04:29:16.372Z,0.00
2022-11-21T04:30:16.347Z,0.00
2022-11-21T04:31:16.321Z,0.00
2022-11-21T04:32:16.308Z,0.00
2022-11-21T04:33:16.271Z,0.00
2022-11-21T04:34:16.251Z,0.00
2022-11-21T04:35:16.220Z,0.00
2022-11-21T04:36:16.195Z,0.00
2022-11-21T04:37:16.204Z,0.00
2022-11-21T04:38:16.144Z,0.00
2022-11-21T04:39:16.113Z,0.00
2022-11-21T04:40:16.095Z,0.00
2022-11-21T04:41:16.076Z,0.00
2022-11-21T04:42:16.046Z,0.00
2022-11-21T04:43:16.020Z,0.00
2022-11-21T04:44:15.993Z,0.00
2022-11-21T04:45:15.986Z,0.00
2022-11-21T04:46:15.948Z,0.00
2022-11-21T04:47:15.940Z,0.00
2022-11-21T04:48:15.905Z,0.00
2022-11-21T04:49:15.875Z,0.00
2022-11-21T04:50:15.871Z,0.00
2022-11-21T04:51:15.826Z,0.00
2022-11-21T04:52:15.791Z,0.00
2022-11-21T04:53:15.771Z,0.00
2022-11-21T04:54:15.750Z,0.00
2022-11-21T04:55:15.709Z,0.00
2022-11-21T04:56:15.690Z,0.00
2022-11-21T04:57:15.703Z,0.00
2022-11-21T04:58:15.642Z,0.00
2022-11-21T04:59:15.615Z,0.00
2022-11-21T05:00:19.612Z,0.00
2022-11-21T05:01:15.589Z,0.00
2022-11-21T05:02:15.542Z,0.00
2022-11-21T05:03:15.511Z,0.00
2022-11-21T05:04:15.487Z,0.00
2022-11-21T05:05:15.458Z,0.00
2022-11-21T05:06:15.439Z,0.00
2022-11-21T05:07:15.492Z,0.00
2022-11-21T05:08:15.385Z,0.00
2022-11-21T05:09:15.374Z,0.00
2022-11-21T05:10:15.369Z,0.00
2022-11-21T05:11:15.318Z,0.00
2022-11-21T05:12:15.289Z,0.00
2022-11-21T05:13:15.267Z,0.00
2022-11-21T05:14:15.233Z,0.00
2022-11-21T05:15:16.033Z,0.00
2022-11-21T05:16:15.191Z,0.00
2022-11-21T05:17:15.194Z,0.00
2022-11-21T05:18:15.134Z,0.00
2022-11-21T05:19:15.105Z,0.00
2022-11-21T05:20:15.107Z,0.00
2022-11-21T05:21:15.048Z,0.00
2022-11-21T05:22:15.034Z,0.00
2022-11-21T05:23:15.001Z,0.00
2022-11-21T05:24:14.982Z,0.00
2022-11-21T05:25:14.953Z,0.00
2022-11-21T05:26:14.933Z,0.00
2022-11-21T05:27:14.903Z,0.00
2022-11-21T05:28:14.877Z,0.00
2022-11-21T05:29:14.852Z,0.00
2022-11-21T05:30:14.829Z,0.00
2022-11-21T05:31:14.800Z,0.00
2022-11-21T05:32:14.776Z,0.00
2022-11-21T05:33:14.749Z,0.00
2022-11-21T05:34:14.726Z,0.00
2022-11-21T05:35:14.696Z,0.00
2022-11-21T05:36:14.675Z,0.00
2022-11-21T05:37:14.641Z,0.00
2022-11-21T05:38:14.624Z,0.00
2022-11-21T05:39:14.606Z,0.00
2022-11-21T05:40:14.589Z,0.00
2022-11-21T05:41:14.547Z,0.00
2022-11-21T05:42:14.523Z,0.00
2022-11-21T05:43:14.514Z,0.00
2022-11-21T05:44:14.484Z,0.00
2022-11-21T05:45:14.474Z,0.00
2022-11-21T05:46:14.423Z,0.00
2022-11-21T05:47:14.391Z,0.00
2022-11-21T05:48:14.372Z,0.00
2022-11-21T05:49:14.339Z,0.00
2022-11-21T05:50:14.319Z,0.00
2022-11-21T05:51:14.301Z,0.00
2022-11-21T05:52:14.274Z,0.00
2022-11-21T05:53:14.243Z,0.00
2022-11-21T05:54:14.235Z,0.00
2022-11-21T05:55:14.202Z,0.00
2022-11-21T05:56:14.173Z,0.00
2022-11-21T05:57:14.143Z,0.00
2022-11-21T05:58:14.120Z,0.00
2022-11-21T05:59:14.094Z,0.00
2022-11-21T06:00:14.073Z,0.00
2022-11-21T06:01:14.045Z,0.00
2022-11-21T06:02:14.027Z,0.00
2022-11-21T06:03:14.158Z,0.00
2022-11-21T06:04:13.969Z,0.00
2022-11-21T06:05:13.947Z,0.00
2022-11-21T06:06:13.923Z,0.00
2022-11-21T06:07:13.958Z,0.00
2022-11-21T06:08:13.867Z,0.00
2022-11-21T06:09:13.853Z,0.00
2022-11-21T06:10:13.818Z,0.00
2022-11-21T06:11:13.789Z,0.00
2022-11-21T06:12:13.763Z,0.00
2022-11-21T06:13:13.733Z,4.00
2022-11-21T06:14:13.714Z,4.00
2022-11-21T06:15:13.689Z,0.00
2022-11-21T06:16:13.679Z,4.00
2022-11-21T06:17:13.646Z,4.00
2022-11-21T06:18:13.613Z,4.00
2022-11-21T06:19:13.596Z,8.00
2022-11-21T06:20:13.555Z,8.00
2022-11-21T06:21:13.534Z,12.00
2022-11-21T06:22:13.507Z,12.00
2022-11-21T06:23:13.491Z,12.00
2022-11-21T06:24:16.063Z,16.00
2022-11-21T06:25:13.434Z,20.00
2022-11-21T06:26:13.404Z,20.00
2022-11-21T06:27:13.409Z,28.00
2022-11-21T06:28:13.360Z,28.00
2022-11-21T06:29:13.338Z,32.00
2022-11-21T06:30:17.660Z,36.00
2022-11-21T06:31:13.277Z,44.00
2022-11-21T06:32:13.306Z,48.00
2022-11-21T06:33:13.241Z,52.00
2022-11-21T06:34:13.225Z,64.00
2022-11-21T06:35:13.207Z,72.00
2022-11-21T06:36:13.169Z,88.00
2022-11-21T06:37:13.155Z,100.00
2022-11-21T06:38:13.166Z,108.00
2022-11-21T06:39:13.107Z,120.00
2022-11-21T06:40:13.047Z,136.00
2022-11-21T06:41:13.036Z,160.00
2022-11-21T06:42:13.005Z,172.00
2022-11-21T06:43:12.975Z,184.00
2022-11-21T06:44:12.961Z,192.00
2022-11-21T06:45:12.942Z,208.00
2022-11-21T06:46:12.903Z,228.00
2022-11-21T06:47:12.877Z,256.00
2022-11-21T06:48:12.877Z,272.00
2022-11-21T06:49:12.825Z,280.00
2022-11-21T06:50:12.796Z,304.00
2022-11-21T06:51:12.775Z,332.00
2022-11-21T06:52:12.744Z,352.00
2022-11-21T06:53:12.728Z,384.00
2022-11-21T06:54:16.752Z,404.00
2022-11-21T06:55:12.673Z,404.00
2022-11-21T06:56:12.644Z,384.00
2022-11-21T06:57:12.619Z,384.00
2022-11-21T06:58:12.599Z,404.00
2022-11-21T06:59:12.572Z,440.00
2022-11-21T07:00:12.540Z,484.00
2022-11-21T07:01:12.585Z,556.00
2022-11-21T07:02:12.495Z,664.00
2022-11-21T07:03:12.468Z,696.00
2022-11-21T07:04:12.444Z,664.00
2022-11-21T07:05:12.420Z,644.00
2022-11-21T07:06:12.392Z,652.00
2022-11-21T07:07:12.439Z,664.00
2022-11-21T07:08:13.471Z,688.00
2022-11-21T07:10:12.289Z,652.00
2022-11-21T07:11:27.755Z,616.00
2022-11-21T07:12:12.235Z,608.00
2022-11-21T07:13:12.214Z,664.00
2022-11-21T07:14:12.188Z,732.00
2022-11-21T07:15:12.168Z,824.00
2022-11-21T07:16:12.137Z,924.00
2022-11-21T07:17:12.115Z,948.00
2022-11-21T07:18:12.104Z,992.00
2022-11-21T07:19:12.063Z,1020.00
2022-11-21T07:20:12.036Z,1068.00
2022-11-21T07:21:12.016Z,1124.00
2022-11-21T07:22:11.984Z,1184.00
2022-11-21T07:23:11.997Z,1200.00
2022-11-21T07:24:11.938Z,1216.00
2022-11-21T07:25:11.913Z,1292.00
2022-11-21T07:26:11.886Z,1416.00
2022-11-21T07:27:11.862Z,1524.00
2022-11-21T07:28:11.832Z,1608.00
2022-11-21T07:29:11.811Z,1696.00
2022-11-21T07:30:11.779Z,1716.00
2022-11-21T07:31:13.791Z,1728.00
2022-11-21T07:32:11.731Z,1804.00
2022-11-21T07:33:11.711Z,1888.00
2022-11-21T07:34:11.681Z,1836.00
2022-11-21T07:35:11.680Z,1808.00
2022-11-21T07:36:11.639Z,1792.00
2022-11-21T07:37:11.642Z,1776.00
2022-11-21T07:38:11.580Z,1788.00
2022-11-21T07:39:11.591Z,1796.00
2022-11-21T07:40:11.526Z,1804.00
2022-11-21T07:41:11.511Z,1856.00
2022-11-21T07:42:11.489Z,1924.00
2022-11-21T07:43:11.461Z,2024.00
2022-11-21T07:44:11.433Z,2172.00
2022-11-21T07:45:11.423Z,2280.00
2022-11-21T07:46:11.380Z,2412.00
2022-11-21T07:47:11.356Z,2584.00
2022-11-21T07:48:11.329Z,2780.00
2022-11-21T07:49:11.307Z,2924.00
2022-11-21T07:50:11.282Z,2912.00
2022-11-21T07:51:11.267Z,2996.00
2022-11-21T07:52:11.233Z,2684.00
2022-11-21T07:53:11.231Z,2592.00
2022-11-21T07:54:11.175Z,2716.00
2022-11-21T07:55:11.159Z,2780.00
2022-11-21T07:56:11.129Z,2948.00
2022-11-21T07:57:11.104Z,3172.00
2022-11-21T07:58:11.102Z,3132.00
2022-11-21T07:59:11.056Z,3000.00
2022-11-21T08:00:11.026Z,3196.00
2022-11-21T08:01:11.015Z,3260.00
2022-11-21T08:02:11.004Z,3248.00
2022-11-21T08:03:10.953Z,2916.00
2022-11-21T08:04:10.924Z,2564.00
2022-11-21T08:05:10.901Z,2556.00
2022-11-21T08:06:10.878Z,2496.00
2022-11-21T08:07:10.931Z,2500.00
2022-11-21T08:08:10.830Z,2432.00
2022-11-21T08:09:10.809Z,2408.00
2022-11-21T08:10:10.785Z,2320.00
2022-11-21T08:11:10.757Z,2292.00
2022-11-21T08:12:10.724Z,2288.00
2022-11-21T08:13:10.704Z,2280.00
2022-11-21T08:14:10.671Z,2348.00
2022-11-21T08:15:10.661Z,2284.00
2022-11-21T08:16:10.622Z,2320.00
2022-11-21T08:17:10.601Z,2440.00
2022-11-21T08:18:10.601Z,2512.00
2022-11-21T08:19:10.560Z,2688.00
2022-11-21T08:20:10.552Z,2728.00
2022-11-21T08:21:10.506Z,2556.00
2022-11-21T08:22:10.473Z,2568.00
2022-11-21T08:23:10.453Z,2768.00
2022-11-21T08:24:10.426Z,3136.00
2022-11-21T08:25:10.407Z,3520.00
2022-11-21T08:26:10.373Z,3944.00
2022-11-21T08:27:10.352Z,4176.00
2022-11-21T08:28:10.317Z,4624.00
2022-11-21T08:29:10.300Z,4988.00
2022-11-21T08:30:10.272Z,5704.00
2022-11-21T08:31:10.249Z,7252.00
2022-11-21T08:32:10.221Z,6240.00
2022-11-21T08:33:10.202Z,7016.00
2022-11-21T08:34:14.268Z,7940.00
2022-11-21T08:35:10.155Z,7964.00
2022-11-21T08:36:10.123Z,8048.00
2022-11-21T08:37:10.106Z,8540.00
2022-11-21T08:38:10.073Z,8484.00
2022-11-21T08:39:10.058Z,8364.00
2022-11-21T08:40:10.023Z,8184.00
2022-11-21T08:41:14.675Z,8100.00
2022-11-21T08:42:09.975Z,8216.00
2022-11-21T08:43:09.952Z,8592.00
2022-11-21T08:44:14.045Z,8452.00
2022-11-21T08:45:09.909Z,8240.00
2022-11-21T08:46:09.870Z,8236.00
2022-11-21T08:47:09.859Z,7664.00
2022-11-21T08:48:09.818Z,7996.00
2022-11-21T08:49:09.808Z,7244.00
2022-11-21T08:50:09.800Z,7044.00
2022-11-21T08:51:09.783Z,6780.00
2022-11-21T08:52:09.726Z,6732.00
2022-11-21T08:53:09.710Z,6192.00
2022-11-21T08:54:09.676Z,6668.00
2022-11-21T08:55:09.674Z,6784.00
2022-11-21T08:56:09.626Z,6888.00
2022-11-21T08:57:09.612Z,7212.00
2022-11-21T08:58:09.581Z,6532.00
2022-11-21T08:59:09.563Z,7332.00
2022-11-21T09:00:09.529Z,6812.00
2022-11-21T09:01:09.510Z,5400.00
2022-11-21T09:02:09.561Z,4852.00
2022-11-21T09:03:09.457Z,5032.00
2022-11-21T09:04:09.433Z,4852.00
2022-11-21T09:05:09.406Z,5352.00
2022-11-21T09:06:09.404Z,5012.00
2022-11-21T09:07:09.411Z,4516.00
2022-11-21T09:08:09.329Z,4920.00
2022-11-21T09:09:09.312Z,4944.00
2022-11-21T09:10:09.298Z,4560.00
2022-11-21T09:11:09.266Z,4604.00
2022-11-21T09:12:09.239Z,4240.00
2022-11-21T09:13:09.219Z,3820.00
2022-11-21T09:14:09.186Z,3888.00
2022-11-21T09:15:09.164Z,4592.00
2022-11-21T09:16:09.133Z,5060.00
2022-11-21T09:17:09.117Z,5224.00
2022-11-21T09:18:09.082Z,5768.00
2022-11-21T09:19:09.064Z,6268.00
2022-11-21T09:20:09.088Z,6644.00
2022-11-21T09:21:09.019Z,6976.00
2022-11-21T09:22:08.994Z,7528.00
2022-11-21T09:23:08.967Z,8216.00
2022-11-21T09:24:08.933Z,8376.00
2022-11-21T09:25:08.914Z,7756.00
2022-11-21T09:26:08.901Z,6544.00
2022-11-21T09:27:08.868Z,6080.00
2022-11-21T09:28:08.839Z,6172.00
2022-11-21T09:29:09.255Z,6396.00
2022-11-21T09:30:08.793Z,6764.00
2022-11-21T09:31:08.774Z,7620.00
2022-11-21T09:32:08.742Z,9876.00
2022-11-21T09:33:08.724Z,11072.00
2022-11-21T09:34:08.694Z,17504.00
2022-11-21T09:35:08.674Z,20864.00
2022-11-21T09:36:08.637Z,11568.00
2022-11-21T09:37:08.627Z,5380.00
2022-11-21T09:38:08.601Z,4832.00
2022-11-21T09:39:08.575Z,4740.00
2022-11-21T09:40:08.551Z,5856.00
2022-11-21T09:41:08.521Z,34240.00
2022-11-21T09:42:08.493Z,7140.00
2022-11-21T09:43:08.477Z,19456.00
2022-11-21T09:44:08.444Z,31552.00
2022-11-21T09:45:08.434Z,32224.00
2022-11-21T09:46:08.394Z,19520.00
2022-11-21T09:47:08.381Z,23104.00
2022-11-21T09:48:08.352Z,24096.00
2022-11-21T09:49:08.325Z,28416.00
2022-11-21T09:50:08.297Z,37376.00
2022-11-21T09:51:08.278Z,35616.00
2022-11-21T09:52:08.251Z,19360.00
2022-11-21T09:53:08.236Z,9328.00
2022-11-21T09:54:08.203Z,19936.00
2022-11-21T09:55:08.182Z,29088.00
2022-11-21T09:56:08.157Z,9356.00
2022-11-21T09:57:08.133Z,8472.00
2022-11-21T09:58:08.142Z,15456.00
2022-11-21T09:59:08.087Z,6044.00
2022-11-21T10:00:08.061Z,27968.00
2022-11-21T10:01:08.148Z,15272.00
2022-11-21T10:02:08.015Z,11996.00
2022-11-21T10:03:07.989Z,10440.00
2022-11-21T10:04:07.972Z,11240.00
2022-11-21T10:05:07.947Z,41728.00
2022-11-21T10:06:07.923Z,46016.00
2022-11-21T10:07:07.919Z,44128.00
2022-11-21T10:08:07.867Z,36512.00
2022-11-21T10:09:07.842Z,44832.00
2022-11-21T10:10:07.825Z,33664.00
2022-11-21T10:11:17.856Z,6468.00
2022-11-21T10:12:07.766Z,32096.00
2022-11-21T10:13:07.754Z,6656.00
2022-11-21T10:14:07.723Z,7224.00
2022-11-21T10:15:07.699Z,6932.00
2022-11-21T10:16:07.675Z,7744.00
2022-11-21T10:17:07.650Z,7272.00
2022-11-21T10:18:07.624Z,7048.00
2022-11-21T10:19:07.600Z,6708.00
2022-11-21T10:20:07.581Z,9568.00
2022-11-21T10:21:07.556Z,49120.00
2022-11-21T10:22:07.533Z,10268.00
2022-11-21T10:23:07.506Z,9772.00
2022-11-21T10:24:07.481Z,14936.00
2022-11-21T10:25:07.454Z,26336.00
2022-11-21T10:26:07.472Z,26400.00
2022-11-21T10:27:07.406Z,11232.00
2022-11-21T10:28:07.379Z,45248.00
2022-11-21T10:29:07.362Z,49952.00
2022-11-21T10:30:07.355Z,23072.00
2022-11-21T10:31:07.341Z,14364.00
2022-11-21T10:32:07.292Z,7820.00
2022-11-21T10:33:07.260Z,9280.00
2022-11-21T10:34:07.243Z,11008.00
2022-11-21T10:35:07.216Z,18944.00
2022-11-21T10:36:07.197Z,7880.00
2022-11-21T10:37:11.682Z,7468.00
2022-11-21T10:38:07.177Z,6232.00
2022-11-21T10:39:07.122Z,5076.00
2022-11-21T10:40:07.107Z,5336.00
2022-11-21T10:41:07.067Z,3904.00
2022-11-21T10:42:07.063Z,13740.00
2022-11-21T10:43:07.024Z,6016.00
2022-11-21T10:44:07.006Z,5656.00
2022-11-21T10:45:06.983Z,5680.00
2022-11-21T10:46:06.959Z,5588.00
2022-11-21T10:47:06.927Z,4664.00
2022-11-21T10:48:08.358Z,38304.00
2022-11-21T10:49:06.879Z,37760.00
2022-11-21T10:50:06.869Z,29312.00
2022-11-21T10:51:06.832Z,36928.00
2022-11-21T10:52:06.815Z,18592.00
2022-11-21T10:53:06.805Z,7660.00
2022-11-21T10:54:08.181Z,27456.00
2022-11-21T10:55:06.736Z,7784.00
2022-11-21T10:56:06.726Z,10516.00
2022-11-21T10:57:06.696Z,7640.00
2022-11-21T10:58:06.670Z,7324.00
2022-11-21T10:59:06.646Z,9816.00
2022-11-21T11:00:06.624Z,12276.00
2022-11-21T11:01:06.692Z,7368.00
2022-11-21T11:02:06.576Z,6520.00
2022-11-21T11:03:06.571Z,6872.00
2022-11-21T11:04:26.820Z,7132.00
2022-11-21T11:05:06.498Z,9200.00
2022-11-21T11:06:06.483Z,11716.00
2022-11-21T11:07:06.520Z,20064.00
2022-11-21T11:08:06.434Z,19264.00
2022-11-21T11:09:06.416Z,17760.00
2022-11-21T11:10:06.386Z,9788.00
2022-11-21T11:11:06.362Z,11824.00
2022-11-21T11:12:06.340Z,14176.00
2022-11-21T11:13:30.909Z,16896.00
2022-11-21T11:14:06.297Z,9472.00
2022-11-21T11:15:06.274Z,9524.00
2022-11-21T11:16:06.252Z,17728.00
2022-11-21T11:17:06.289Z,9596.00
2022-11-21T11:18:09.634Z,8024.00
2022-11-21T11:19:06.224Z,6188.00
2022-11-21T11:20:06.160Z,5944.00
2022-11-21T11:21:06.159Z,4484.00
2022-11-21T11:22:06.111Z,3852.00
2022-11-21T11:23:06.092Z,3776.00
2022-11-21T11:24:06.090Z,3316.00
2022-11-21T11:25:06.041Z,3740.00
2022-11-21T11:26:06.024Z,3704.00
2022-11-21T11:27:06.001Z,4204.00
2022-11-21T11:28:05.978Z,4864.00
2022-11-21T11:29:05.962Z,6528.00
2022-11-21T11:30:05.927Z,6520.00
2022-11-21T11:31:05.916Z,6920.00
2022-11-21T11:32:05.886Z,11736.00
2022-11-21T11:33:05.857Z,12752.00
2022-11-21T11:34:05.838Z,13080.00
2022-11-21T11:35:05.806Z,11984.00
2022-11-21T11:36:05.786Z,12556.00
2022-11-21T11:37:05.760Z,15380.00
2022-11-21T11:38:05.739Z,15620.00
2022-11-21T11:39:05.717Z,16160.00
2022-11-21T11:40:05.691Z,13096.00
2022-11-21T11:41:05.668Z,14332.00
2022-11-21T11:42:05.649Z,14836.00
2022-11-21T11:43:05.628Z,14104.00
2022-11-21T11:44:05.608Z,12784.00
2022-11-21T11:45:05.580Z,14052.00
2022-11-21T11:46:05.559Z,10628.00
2022-11-21T11:47:05.532Z,11496.00
2022-11-21T11:48:05.518Z,11820.00
2022-11-21T11:49:21.742Z,12408.00
2022-11-21T11:50:05.477Z,13468.00
2022-11-21T11:51:05.446Z,12816.00
2022-11-21T11:52:05.433Z,11916.00
2022-11-21T11:53:05.414Z,11976.00
2022-11-21T11:54:05.389Z,11564.00
2022-11-21T11:55:05.361Z,11540.00
2022-11-21T11:56:05.348Z,11004.00
2022-11-21T11:57:05.329Z,10480.00
2022-11-21T11:58:05.312Z,10212.00
2022-11-21T11:59:05.277Z,9960.00
2022-11-21T12:00:05.265Z,10220.00
2022-11-21T12:01:05.238Z,10216.00
2022-11-21T12:02:10.299Z,10148.00
2022-11-21T12:03:05.203Z,10428.00
2022-11-21T12:04:05.180Z,10724.00
2022-11-21T12:05:05.155Z,11096.00
2022-11-21T12:06:09.264Z,10780.00
2022-11-21T12:08:05.946Z,10208.00
2022-11-21T12:08:40.901Z,10520.00
2022-11-21T12:09:05.119Z,8912.00
2022-11-21T12:10:05.053Z,10228.00
2022-11-21T12:11:05.054Z,10000.00
2022-11-21T12:12:05.012Z,10000.00
2022-11-21T12:13:04.991Z,9980.00
2022-11-21T12:14:04.979Z,10584.00
2022-11-21T12:15:04.973Z,11240.00
2022-11-21T12:16:11.836Z,12036.00
2022-11-21T12:17:04.926Z,12436.00
2022-11-21T12:18:04.892Z,11920.00
2022-11-21T12:19:04.871Z,11588.00
2022-11-21T12:20:04.853Z,11304.00
2022-11-21T12:21:04.828Z,10376.00
2022-11-21T12:22:04.816Z,9684.00
2022-11-21T12:23:04.791Z,9376.00
2022-11-21T12:24:04.773Z,9468.00
2022-11-21T12:25:04.762Z,10384.00
2022-11-21T12:26:04.732Z,10740.00
2022-11-21T12:27:04.709Z,10540.00
2022-11-21T12:28:04.692Z,10588.00
2022-11-21T12:29:04.669Z,10708.00
2022-11-21T12:30:04.658Z,9924.00
2022-11-21T12:31:04.630Z,9956.00
2022-11-21T12:32:04.615Z,9280.00
2022-11-21T12:33:08.609Z,9180.00
2022-11-21T12:34:04.577Z,10128.00
2022-11-21T12:35:04.551Z,11428.00
2022-11-21T12:36:16.682Z,11824.00
2022-11-21T12:37:04.565Z,9468.00
2022-11-21T12:38:04.499Z,7932.00
2022-11-21T12:39:04.509Z,7436.00
2022-11-21T12:40:04.461Z,6472.00